sensor_id;sensor_type;location;lat;lon;timestamp;P1;durP1;ratioP1;P2;durP2;ratioP2
1306;SDS011;646;48.696;9.114;2022-11-20T00:01:47;8.77;;;4.33;;
1306;SDS011;646;48.696;9.114;2022-11-20T00:04:12;4.87;;;4.40;;
1306;SDS011;646;48.696;9.114;2022-11-20T00:06:38;6.40;;;4.70;;
1306;SDS011;646;48.696;9.114;2022-11-20T00:09:03;6.13;;;4.67;;
1306;SDS011;646;48.696;9.114;2022-11-20T00:11:30;5.35;;;4.35;;
1306;SDS011;646;48.696;9.114;2022-11-20T00:13:57;4.15;;;3.75;;
1306;SDS011;646;48.696;9.114;2022-11-20T00:16:25;5.03;;;3.75;;
1306;SDS011;646;48.696;9.114;2022-11-20T00:18:52;4.80;;;4.38;;
1306;SDS011;646;48.696;9.114;2022-11-20T00:21:20;4.57;;;4.18;;
1306;SDS011;646;48.696;9.114;2022-11-20T00:23:48;4.85;;;4.38;;
1306;SDS011;646;48.696;9.114;2022-11-20T00:26:15;4.07;;;3.67;;
1306;SDS011;646;48.696;9.114;2022-11-20T00:28:42;4.15;;;3.75;;
1306;SDS011;646;48.696;9.114;2022-11-20T00:31:13;4.70;;;4.22;;
1306;SDS011;646;48.696;9.114;2022-11-20T00:33:40;4.00;;;3.58;;
1306;SDS011;646;48.696;9.114;2022-11-20T00:36:07;5.15;;;4.22;;
1306;SDS011;646;48.696;9.114;2022-11-20T00:38:35;4.40;;;3.65;;
1306;SDS011;646;48.696;9.114;2022-11-20T00:41:02;3.60;;;3.30;;
1306;SDS011;646;48.696;9.114;2022-11-20T00:43:29;3.58;;;3.22;;
1306;SDS011;646;48.696;9.114;2022-11-20T00:46:01;4.53;;;3.90;;
1306;SDS011;646;48.696;9.114;2022-11-20T00:48:29;4.18;;;3.75;;
1306;SDS011;646;48.696;9.114;2022-11-20T00:50:55;4.03;;;3.70;;
1306;SDS011;646;48.696;9.114;2022-11-20T00:53:21;4.00;;;3.70;;
1306;SDS011;646;48.696;9.114;2022-11-20T00:56:00;3.58;;;3.28;;
1306;SDS011;646;48.696;9.114;2022-11-20T00:58:31;4.05;;;3.75;;
1306;SDS011;646;48.696;9.114;2022-11-20T01:00:59;5.72;;;4.00;;
1306;SDS011;646;48.696;9.114;2022-11-20T01:03:26;8.07;;;3.72;;
1306;SDS011;646;48.696;9.114;2022-11-20T01:05:51;4.67;;;3.73;;
1306;SDS011;646;48.696;9.114;2022-11-20T01:08:17;4.17;;;3.53;;
1306;SDS011;646;48.696;9.114;2022-11-20T01:10:42;4.67;;;4.17;;
1306;SDS011;646;48.696;9.114;2022-11-20T01:13:08;3.40;;;3.10;;
1306;SDS011;646;48.696;9.114;2022-11-20T01:15:52;3.55;;;3.25;;
1306;SDS011;646;48.696;9.114;2022-11-20T01:18:17;3.97;;;3.10;;
1306;SDS011;646;48.696;9.114;2022-11-20T01:20:43;5.03;;;3.43;;
1306;SDS011;646;48.696;9.114;2022-11-20T01:23:08;6.90;;;3.97;;
1306;SDS011;646;48.696;9.114;2022-11-20T01:25:34;3.60;;;3.30;;
1306;SDS011;646;48.696;9.114;2022-11-20T01:27:59;3.90;;;3.20;;
1306;SDS011;646;48.696;9.114;2022-11-20T01:30:25;5.30;;;3.20;;
1306;SDS011;646;48.696;9.114;2022-11-20T01:32:50;4.07;;;3.63;;
1306;SDS011;646;48.696;9.114;2022-11-20T01:35:16;3.40;;;3.10;;
1306;SDS011;646;48.696;9.114;2022-11-20T01:37:42;4.83;;;3.10;;
1306;SDS011;646;48.696;9.114;2022-11-20T01:40:07;3.50;;;2.90;;
1306;SDS011;646;48.696;9.114;2022-11-20T01:42:33;4.68;;;3.40;;
1306;SDS011;646;48.696;9.114;2022-11-20T01:48:18;2.88;;;2.67;;
1306;SDS011;646;48.696;9.114;2022-11-20T01:50:46;3.42;;;2.90;;
1306;SDS011;646;48.696;9.114;2022-11-20T01:53:13;3.70;;;2.90;;
1306;SDS011;646;48.696;9.114;2022-11-20T01:55:43;3.83;;;3.13;;
1306;SDS011;646;48.696;9.114;2022-11-20T01:58:13;3.60;;;3.15;;
1306;SDS011;646;48.696;9.114;2022-11-20T02:00:40;4.35;;;3.00;;
1306;SDS011;646;48.696;9.114;2022-11-20T02:03:07;3.03;;;2.70;;
1306;SDS011;646;48.696;9.114;2022-11-20T02:08:11;3.40;;;3.00;;
1306;SDS011;646;48.696;9.114;2022-11-20T02:10:37;3.83;;;3.25;;
1306;SDS011;646;48.696;9.114;2022-11-20T02:13:03;3.33;;;2.97;;
1306;SDS011;646;48.696;9.114;2022-11-20T02:15:47;4.18;;;3.75;;
1306;SDS011;646;48.696;9.114;2022-11-20T02:18:14;4.05;;;3.22;;
1306;SDS011;646;48.696;9.114;2022-11-20T02:20:43;3.67;;;3.10;;
1306;SDS011;646;48.696;9.114;2022-11-20T02:25:58;4.43;;;3.20;;
1306;SDS011;646;48.696;9.114;2022-11-20T02:28:27;5.32;;;3.50;;
1306;SDS011;646;48.696;9.114;2022-11-20T02:30:52;3.40;;;3.10;;
1306;SDS011;646;48.696;9.114;2022-11-20T02:33:18;5.53;;;3.90;;
1306;SDS011;646;48.696;9.114;2022-11-20T02:35:46;4.40;;;4.00;;
1306;SDS011;646;48.696;9.114;2022-11-20T02:38:12;5.13;;;4.00;;
1306;SDS011;646;48.696;9.114;2022-11-20T02:40:39;3.70;;;3.40;;
1306;SDS011;646;48.696;9.114;2022-11-20T02:43:05;6.53;;;4.60;;
1306;SDS011;646;48.696;9.114;2022-11-20T02:45:32;4.38;;;3.65;;
1306;SDS011;646;48.696;9.114;2022-11-20T02:47:57;4.50;;;3.80;;
1306;SDS011;646;48.696;9.114;2022-11-20T02:50:23;4.77;;;4.30;;
1306;SDS011;646;48.696;9.114;2022-11-20T02:52:48;6.30;;;4.53;;
1306;SDS011;646;48.696;9.114;2022-11-20T02:55:14;6.13;;;5.53;;
1306;SDS011;646;48.696;9.114;2022-11-20T02:57:40;5.67;;;4.17;;
1306;SDS011;646;48.696;9.114;2022-11-20T03:00:05;5.50;;;4.27;;
1306;SDS011;646;48.696;9.114;2022-11-20T03:02:32;4.80;;;4.30;;
1306;SDS011;646;48.696;9.114;2022-11-20T03:04:58;4.82;;;3.92;;
1306;SDS011;646;48.696;9.114;2022-11-20T03:07:23;4.87;;;4.33;;
1306;SDS011;646;48.696;9.114;2022-11-20T03:09:49;4.87;;;4.03;;
1306;SDS011;646;48.696;9.114;2022-11-20T03:12:14;5.40;;;4.00;;
1306;SDS011;646;48.696;9.114;2022-11-20T03:14:40;4.60;;;3.80;;
1306;SDS011;646;48.696;9.114;2022-11-20T03:17:05;6.63;;;4.80;;
1306;SDS011;646;48.696;9.114;2022-11-20T03:19:31;7.47;;;4.83;;
1306;SDS011;646;48.696;9.114;2022-11-20T03:21:56;7.77;;;5.70;;
1306;SDS011;646;48.696;9.114;2022-11-20T03:24:22;7.07;;;4.80;;
1306;SDS011;646;48.696;9.114;2022-11-20T03:26:48;6.70;;;4.77;;
1306;SDS011;646;48.696;9.114;2022-11-20T03:29:13;6.47;;;5.30;;
1306;SDS011;646;48.696;9.114;2022-11-20T03:31:39;7.23;;;5.27;;
1306;SDS011;646;48.696;9.114;2022-11-20T03:34:06;7.90;;;5.93;;
1306;SDS011;646;48.696;9.114;2022-11-20T03:36:32;5.93;;;4.70;;
1306;SDS011;646;48.696;9.114;2022-11-20T03:38:58;6.23;;;4.40;;
1306;SDS011;646;48.696;9.114;2022-11-20T03:41:25;5.20;;;4.03;;
1306;SDS011;646;48.696;9.114;2022-11-20T03:43:53;4.97;;;4.38;;
1306;SDS011;646;48.696;9.114;2022-11-20T03:46:20;5.72;;;4.13;;
1306;SDS011;646;48.696;9.114;2022-11-20T03:48:46;5.20;;;4.47;;
1306;SDS011;646;48.696;9.114;2022-11-20T03:51:19;5.00;;;4.50;;
1306;SDS011;646;48.696;9.114;2022-11-20T03:53:47;6.20;;;5.50;;
1306;SDS011;646;48.696;9.114;2022-11-20T03:56:15;7.47;;;5.10;;
1306;SDS011;646;48.696;9.114;2022-11-20T03:58:42;5.35;;;4.85;;
1306;SDS011;646;48.696;9.114;2022-11-20T04:01:09;6.78;;;4.88;;
1306;SDS011;646;48.696;9.114;2022-11-20T04:03:37;6.32;;;5.63;;
1306;SDS011;646;48.696;9.114;2022-11-20T04:06:04;5.55;;;4.45;;
1306;SDS011;646;48.696;9.114;2022-11-20T04:08:31;8.85;;;5.80;;
1306;SDS011;646;48.696;9.114;2022-11-20T04:11:07;6.50;;;5.20;;
1306;SDS011;646;48.696;9.114;2022-11-20T04:13:33;6.50;;;5.82;;
1306;SDS011;646;48.696;9.114;2022-11-20T04:15:59;10.23;;;6.10;;
1306;SDS011;646;48.696;9.114;2022-11-20T04:18:24;7.50;;;5.77;;
1306;SDS011;646;48.696;9.114;2022-11-20T04:20:49;7.23;;;6.20;;
1306;SDS011;646;48.696;9.114;2022-11-20T04:23:15;5.67;;;4.80;;
1306;SDS011;646;48.696;9.114;2022-11-20T04:25:40;7.67;;;5.80;;
1306;SDS011;646;48.696;9.114;2022-11-20T04:28:06;7.40;;;5.80;;
1306;SDS011;646;48.696;9.114;2022-11-20T04:30:31;7.63;;;5.67;;
1306;SDS011;646;48.696;9.114;2022-11-20T04:32:57;9.03;;;6.20;;
1306;SDS011;646;48.696;9.114;2022-11-20T04:35:22;6.63;;;5.70;;
1306;SDS011;646;48.696;9.114;2022-11-20T04:37:50;9.93;;;6.67;;
1306;SDS011;646;48.696;9.114;2022-11-20T04:40:16;6.82;;;6.13;;
1306;SDS011;646;48.696;9.114;2022-11-20T04:42:42;8.80;;;6.93;;
1306;SDS011;646;48.696;9.114;2022-11-20T04:45:08;7.93;;;5.97;;
1306;SDS011;646;48.696;9.114;2022-11-20T04:47:33;7.37;;;5.50;;
1306;SDS011;646;48.696;9.114;2022-11-20T04:49:59;8.77;;;6.10;;
1306;SDS011;646;48.696;9.114;2022-11-20T04:52:24;7.50;;;6.00;;
1306;SDS011;646;48.696;9.114;2022-11-20T04:54:50;7.87;;;5.27;;
1306;SDS011;646;48.696;9.114;2022-11-20T04:57:17;7.60;;;5.30;;
1306;SDS011;646;48.696;9.114;2022-11-20T04:59:43;6.23;;;5.63;;
1306;SDS011;646;48.696;9.114;2022-11-20T05:02:09;7.53;;;6.30;;
1306;SDS011;646;48.696;9.114;2022-11-20T05:04:35;7.70;;;5.70;;
1306;SDS011;646;48.696;9.114;2022-11-20T05:07:00;7.90;;;5.40;;
1306;SDS011;646;48.696;9.114;2022-11-20T05:09:26;7.50;;;5.63;;
1306;SDS011;646;48.696;9.114;2022-11-20T05:11:51;6.93;;;5.70;;
1306;SDS011;646;48.696;9.114;2022-11-20T05:14:17;5.27;;;4.63;;
1306;SDS011;646;48.696;9.114;2022-11-20T05:16:42;5.70;;;5.10;;
1306;SDS011;646;48.696;9.114;2022-11-20T05:19:08;7.97;;;5.63;;
1306;SDS011;646;48.696;9.114;2022-11-20T05:21:33;6.33;;;5.20;;
1306;SDS011;646;48.696;9.114;2022-11-20T05:23:59;8.57;;;5.10;;
1306;SDS011;646;48.696;9.114;2022-11-20T05:26:24;8.27;;;5.87;;
1306;SDS011;646;48.696;9.114;2022-11-20T05:28:50;5.60;;;4.97;;
1306;SDS011;646;48.696;9.114;2022-11-20T05:31:17;6.87;;;5.10;;
1306;SDS011;646;48.696;9.114;2022-11-20T05:33:47;5.90;;;5.30;;
1306;SDS011;646;48.696;9.114;2022-11-20T05:36:13;6.90;;;5.60;;
1306;SDS011;646;48.696;9.114;2022-11-20T05:38:40;7.70;;;5.45;;
1306;SDS011;646;48.696;9.114;2022-11-20T05:41:07;5.93;;;4.97;;
1306;SDS011;646;48.696;9.114;2022-11-20T05:43:35;6.50;;;5.60;;
1306;SDS011;646;48.696;9.114;2022-11-20T05:46:02;5.90;;;5.00;;
1306;SDS011;646;48.696;9.114;2022-11-20T05:48:28;7.63;;;5.80;;
1306;SDS011;646;48.696;9.114;2022-11-20T05:50:53;5.87;;;5.00;;
1306;SDS011;646;48.696;9.114;2022-11-20T05:53:21;5.90;;;4.82;;
1306;SDS011;646;48.696;9.114;2022-11-20T05:55:46;5.43;;;4.93;;
1306;SDS011;646;48.696;9.114;2022-11-20T05:58:20;7.40;;;5.25;;
1306;SDS011;646;48.696;9.114;2022-11-20T06:00:45;9.03;;;5.10;;
1306;SDS011;646;48.696;9.114;2022-11-20T06:03:11;6.50;;;4.73;;
1306;SDS011;646;48.696;9.114;2022-11-20T06:05:36;7.30;;;4.47;;
1306;SDS011;646;48.696;9.114;2022-11-20T06:08:02;5.80;;;4.90;;
1306;SDS011;646;48.696;9.114;2022-11-20T06:10:27;5.00;;;4.50;;
1306;SDS011;646;48.696;9.114;2022-11-20T06:12:53;8.50;;;4.70;;
1306;SDS011;646;48.696;9.114;2022-11-20T06:15:21;7.85;;;4.90;;
1306;SDS011;646;48.696;9.114;2022-11-20T06:17:51;5.77;;;5.27;;
1306;SDS011;646;48.696;9.114;2022-11-20T06:20:17;5.55;;;4.75;;
1306;SDS011;646;48.696;9.114;2022-11-20T06:22:43;7.83;;;5.50;;
1306;SDS011;646;48.696;9.114;2022-11-20T06:25:08;6.73;;;5.50;;
1306;SDS011;646;48.696;9.114;2022-11-20T06:27:34;5.30;;;4.63;;
1306;SDS011;646;48.696;9.114;2022-11-20T06:29:59;6.30;;;4.97;;
1306;SDS011;646;48.696;9.114;2022-11-20T06:32:25;6.80;;;5.90;;
1306;SDS011;646;48.696;9.114;2022-11-20T06:34:50;6.07;;;5.27;;
1306;SDS011;646;48.696;9.114;2022-11-20T06:37:16;4.97;;;4.50;;
1306;SDS011;646;48.696;9.114;2022-11-20T06:39:41;5.53;;;4.90;;
1306;SDS011;646;48.696;9.114;2022-11-20T06:42:07;5.30;;;4.57;;
1306;SDS011;646;48.696;9.114;2022-11-20T06:44:32;8.37;;;7.20;;
1306;SDS011;646;48.696;9.114;2022-11-20T06:46:58;6.83;;;6.13;;
1306;SDS011;646;48.696;9.114;2022-11-20T06:49:23;12.97;;;11.30;;
1306;SDS011;646;48.696;9.114;2022-11-20T06:51:50;13.63;;;12.32;;
1306;SDS011;646;48.696;9.114;2022-11-20T06:54:15;9.77;;;8.80;;
1306;SDS011;646;48.696;9.114;2022-11-20T06:56:41;4.73;;;4.20;;
1306;SDS011;646;48.696;9.114;2022-11-20T06:59:06;7.80;;;5.00;;
1306;SDS011;646;48.696;9.114;2022-11-20T07:01:32;6.00;;;4.70;;
1306;SDS011;646;48.696;9.114;2022-11-20T07:03:58;8.40;;;5.50;;
1306;SDS011;646;48.696;9.114;2022-11-20T07:06:24;5.00;;;4.10;;
1306;SDS011;646;48.696;9.114;2022-11-20T07:08:50;5.87;;;4.80;;
1306;SDS011;646;48.696;9.114;2022-11-20T07:11:17;5.43;;;4.55;;
1306;SDS011;646;48.696;9.114;2022-11-20T07:13:42;6.03;;;4.53;;
1306;SDS011;646;48.696;9.114;2022-11-20T07:16:08;5.87;;;4.40;;
1306;SDS011;646;48.696;9.114;2022-11-20T07:18:34;4.20;;;3.70;;
1306;SDS011;646;48.696;9.114;2022-11-20T07:21:04;7.72;;;5.55;;
1306;SDS011;646;48.696;9.114;2022-11-20T07:23:32;6.50;;;5.53;;
1306;SDS011;646;48.696;9.114;2022-11-20T07:25:57;5.00;;;4.50;;
1306;SDS011;646;48.696;9.114;2022-11-20T07:28:27;4.95;;;4.40;;
1306;SDS011;646;48.696;9.114;2022-11-20T07:30:52;4.60;;;4.20;;
1306;SDS011;646;48.696;9.114;2022-11-20T07:33:18;4.90;;;4.40;;
1306;SDS011;646;48.696;9.114;2022-11-20T07:35:44;4.80;;;4.10;;
1306;SDS011;646;48.696;9.114;2022-11-20T07:38:10;4.30;;;3.93;;
1306;SDS011;646;48.696;9.114;2022-11-20T07:40:35;4.93;;;4.53;;
1306;SDS011;646;48.696;9.114;2022-11-20T07:43:01;6.27;;;4.97;;
1306;SDS011;646;48.696;9.114;2022-11-20T07:45:26;5.80;;;5.20;;
1306;SDS011;646;48.696;9.114;2022-11-20T07:47:52;9.80;;;7.80;;
1306;SDS011;646;48.696;9.114;2022-11-20T07:50:18;6.00;;;5.40;;
1306;SDS011;646;48.696;9.114;2022-11-20T07:52:44;5.88;;;4.93;;
1306;SDS011;646;48.696;9.114;2022-11-20T07:55:10;5.67;;;5.00;;
1306;SDS011;646;48.696;9.114;2022-11-20T07:57:36;5.25;;;4.63;;
1306;SDS011;646;48.696;9.114;2022-11-20T08:00:02;4.60;;;4.10;;
1306;SDS011;646;48.696;9.114;2022-11-20T08:02:29;5.95;;;4.50;;
1306;SDS011;646;48.696;9.114;2022-11-20T08:04:54;8.10;;;4.67;;
1306;SDS011;646;48.696;9.114;2022-11-20T08:07:20;6.30;;;4.20;;
1306;SDS011;646;48.696;9.114;2022-11-20T08:09:45;6.47;;;4.00;;
1306;SDS011;646;48.696;9.114;2022-11-20T08:12:16;5.13;;;3.97;;
1306;SDS011;646;48.696;9.114;2022-11-20T08:15:02;4.00;;;3.55;;
1306;SDS011;646;48.696;9.114;2022-11-20T08:17:29;5.05;;;4.00;;
1306;SDS011;646;48.696;9.114;2022-11-20T08:19:55;5.57;;;5.03;;
1306;SDS011;646;48.696;9.114;2022-11-20T08:22:20;5.40;;;5.00;;
1306;SDS011;646;48.696;9.114;2022-11-20T08:24:46;5.00;;;4.60;;
1306;SDS011;646;48.696;9.114;2022-11-20T08:27:11;4.10;;;3.70;;
1306;SDS011;646;48.696;9.114;2022-11-20T08:29:37;4.67;;;4.27;;
1306;SDS011;646;48.696;9.114;2022-11-20T08:32:03;4.43;;;4.03;;
1306;SDS011;646;48.696;9.114;2022-11-20T08:34:28;4.53;;;4.10;;
1306;SDS011;646;48.696;9.114;2022-11-20T08:36:54;5.80;;;3.70;;
1306;SDS011;646;48.696;9.114;2022-11-20T08:39:19;4.80;;;3.40;;
1306;SDS011;646;48.696;9.114;2022-11-20T08:41:45;3.43;;;3.07;;
1306;SDS011;646;48.696;9.114;2022-11-20T08:44:10;3.80;;;3.47;;
1306;SDS011;646;48.696;9.114;2022-11-20T08:46:37;3.70;;;3.33;;
1306;SDS011;646;48.696;9.114;2022-11-20T08:49:06;4.20;;;3.53;;
1306;SDS011;646;48.696;9.114;2022-11-20T08:51:33;3.65;;;3.35;;
1306;SDS011;646;48.696;9.114;2022-11-20T08:53:59;3.42;;;3.20;;
1306;SDS011;646;48.696;9.114;2022-11-20T08:56:25;4.10;;;3.37;;
1306;SDS011;646;48.696;9.114;2022-11-20T08:58:50;4.13;;;3.83;;
1306;SDS011;646;48.696;9.114;2022-11-20T09:01:17;3.05;;;2.75;;
1306;SDS011;646;48.696;9.114;2022-11-20T09:03:43;3.03;;;2.60;;
1306;SDS011;646;48.696;9.114;2022-11-20T09:06:09;4.00;;;3.70;;
1306;SDS011;646;48.696;9.114;2022-11-20T09:08:34;2.47;;;2.27;;
1306;SDS011;646;48.696;9.114;2022-11-20T09:11:01;3.00;;;2.70;;
1306;SDS011;646;48.696;9.114;2022-11-20T09:13:27;2.45;;;2.20;;
1306;SDS011;646;48.696;9.114;2022-11-20T09:15:54;2.53;;;2.30;;
1306;SDS011;646;48.696;9.114;2022-11-20T09:18:20;2.17;;;2.08;;
1306;SDS011;646;48.696;9.114;2022-11-20T09:20:45;2.40;;;2.20;;
1306;SDS011;646;48.696;9.114;2022-11-20T09:23:11;1.90;;;1.80;;
1306;SDS011;646;48.696;9.114;2022-11-20T09:25:36;1.67;;;1.57;;
1306;SDS011;646;48.696;9.114;2022-11-20T09:28:02;1.87;;;1.77;;
1306;SDS011;646;48.696;9.114;2022-11-20T09:30:27;1.20;;;1.20;;
1306;SDS011;646;48.696;9.114;2022-11-20T09:32:53;2.03;;;1.27;;
1306;SDS011;646;48.696;9.114;2022-11-20T09:35:19;1.53;;;1.47;;
1306;SDS011;646;48.696;9.114;2022-11-20T09:37:45;1.60;;;1.50;;
1306;SDS011;646;48.696;9.114;2022-11-20T09:40:18;1.60;;;1.50;;
1306;SDS011;646;48.696;9.114;2022-11-20T09:45:50;1.67;;;1.58;;
1306;SDS011;646;48.696;9.114;2022-11-20T09:48:35;1.50;;;1.40;;
1306;SDS011;646;48.696;9.114;2022-11-20T09:54:22;2.58;;;2.38;;
1306;SDS011;646;48.696;9.114;2022-11-20T09:56:55;3.20;;;2.90;;
1306;SDS011;646;48.696;9.114;2022-11-20T09:59:30;2.22;;;2.13;;
1306;SDS011;646;48.696;9.114;2022-11-20T10:02:00;1.70;;;1.60;;
1306;SDS011;646;48.696;9.114;2022-11-20T10:04:28;1.58;;;1.45;;
1306;SDS011;646;48.696;9.114;2022-11-20T10:07:19;1.20;;;1.10;;
1306;SDS011;646;48.696;9.114;2022-11-20T10:09:51;1.20;;;1.13;;
1306;SDS011;646;48.696;9.114;2022-11-20T10:17:50;5.00;;;1.80;;
1306;SDS011;646;48.696;9.114;2022-11-20T10:20:37;1.00;;;0.90;;
1306;SDS011;646;48.696;9.114;2022-11-20T10:23:15;1.10;;;1.10;;
1306;SDS011;646;48.696;9.114;2022-11-20T10:28:30;1.25;;;1.15;;
1306;SDS011;646;48.696;9.114;2022-11-20T10:34:12;1.20;;;0.90;;
1306;SDS011;646;48.696;9.114;2022-11-20T10:36:46;1.02;;;0.93;;
1306;SDS011;646;48.696;9.114;2022-11-20T10:39:28;1.52;;;1.42;;
1306;SDS011;646;48.696;9.114;2022-11-20T10:42:00;1.75;;;1.65;;
1306;SDS011;646;48.696;9.114;2022-11-20T10:44:26;1.60;;;1.50;;
1306;SDS011;646;48.696;9.114;2022-11-20T10:47:15;2.22;;;2.08;;
1306;SDS011;646;48.696;9.114;2022-11-20T10:49:46;1.67;;;1.58;;
1306;SDS011;646;48.696;9.114;2022-11-20T10:55:19;1.73;;;1.05;;
1306;SDS011;646;48.696;9.114;2022-11-20T11:00:30;1.50;;;1.40;;
1306;SDS011;646;48.696;9.114;2022-11-20T11:02:56;1.33;;;1.23;;
1306;SDS011;646;48.696;9.114;2022-11-20T11:05:36;1.67;;;1.50;;
1306;SDS011;646;48.696;9.114;2022-11-20T11:08:14;1.40;;;1.30;;
1306;SDS011;646;48.696;9.114;2022-11-20T11:10:51;1.95;;;1.85;;
1306;SDS011;646;48.696;9.114;2022-11-20T11:13:22;2.30;;;2.20;;
1306;SDS011;646;48.696;9.114;2022-11-20T11:15:49;2.15;;;2.05;;
1306;SDS011;646;48.696;9.114;2022-11-20T11:20:53;2.20;;;2.00;;
1306;SDS011;646;48.696;9.114;2022-11-20T11:26:03;1.95;;;1.80;;
1306;SDS011;646;48.696;9.114;2022-11-20T11:28:31;1.90;;;1.80;;
1306;SDS011;646;48.696;9.114;2022-11-20T11:30:57;2.00;;;1.90;;
1306;SDS011;646;48.696;9.114;2022-11-20T11:35:53;1.70;;;1.60;;
1306;SDS011;646;48.696;9.114;2022-11-20T11:40:59;1.92;;;1.80;;
1306;SDS011;646;48.696;9.114;2022-11-20T11:43:26;2.15;;;2.05;;
1306;SDS011;646;48.696;9.114;2022-11-20T11:46:34;2.20;;;2.00;;
1306;SDS011;646;48.696;9.114;2022-11-20T11:54:50;3.40;;;3.10;;
1306;SDS011;646;48.696;9.114;2022-11-20T12:00:21;3.10;;;2.90;;
1306;SDS011;646;48.696;9.114;2022-11-20T12:05:29;1.73;;;1.63;;
1306;SDS011;646;48.696;9.114;2022-11-20T12:08:03;1.60;;;1.50;;
1306;SDS011;646;48.696;9.114;2022-11-20T12:15:58;1.27;;;1.27;;
1306;SDS011;646;48.696;9.114;2022-11-20T12:18:25;1.80;;;1.70;;
1306;SDS011;646;48.696;9.114;2022-11-20T12:20:57;1.63;;;1.53;;
1306;SDS011;646;48.696;9.114;2022-11-20T12:24:10;1.40;;;1.30;;
1306;SDS011;646;48.696;9.114;2022-11-20T12:38:43;1.73;;;1.53;;
1306;SDS011;646;48.696;9.114;2022-11-20T12:45:31;1.43;;;1.33;;
1306;SDS011;646;48.696;9.114;2022-11-20T12:52:51;1.90;;;1.47;;
1306;SDS011;646;48.696;9.114;2022-11-20T13:00:22;1.60;;;1.20;;
1306;SDS011;646;48.696;9.114;2022-11-20T13:05:37;1.07;;;1.07;;
1306;SDS011;646;48.696;9.114;2022-11-20T13:08:20;1.10;;;1.00;;
1306;SDS011;646;48.696;9.114;2022-11-20T13:13:45;1.63;;;1.43;;
1306;SDS011;646;48.696;9.114;2022-11-20T13:16:16;1.40;;;1.30;;
1306;SDS011;646;48.696;9.114;2022-11-20T13:18:53;3.87;;;3.57;;
1306;SDS011;646;48.696;9.114;2022-11-20T13:21:22;1.37;;;1.27;;
1306;SDS011;646;48.696;9.114;2022-11-20T13:29:33;3.27;;;1.73;;
1306;SDS011;646;48.696;9.114;2022-11-20T13:32:04;1.37;;;1.10;;
1306;SDS011;646;48.696;9.114;2022-11-20T13:34:31;4.03;;;3.73;;
1306;SDS011;646;48.696;9.114;2022-11-20T13:37:00;2.33;;;2.23;;
1306;SDS011;646;48.696;9.114;2022-11-20T13:39:35;1.40;;;1.30;;
1306;SDS011;646;48.696;9.114;2022-11-20T13:42:54;2.17;;;1.90;;
1306;SDS011;646;48.696;9.114;2022-11-20T13:45:00;2.83;;;2.57;;
1306;SDS011;646;48.696;9.114;2022-11-20T13:47:33;4.47;;;4.03;;
1306;SDS011;646;48.696;9.114;2022-11-20T13:50:00;3.67;;;3.00;;
1306;SDS011;646;48.696;9.114;2022-11-20T13:55:24;1.63;;;1.60;;
1306;SDS011;646;48.696;9.114;2022-11-20T13:58:21;4.00;;;3.63;;
1306;SDS011;646;48.696;9.114;2022-11-20T14:01:09;3.40;;;3.10;;
1306;SDS011;646;48.696;9.114;2022-11-20T14:03:40;1.67;;;1.57;;
1306;SDS011;646;48.696;9.114;2022-11-20T14:06:10;3.63;;;3.33;;
1306;SDS011;646;48.696;9.114;2022-11-20T14:08:42;3.30;;;2.17;;
1306;SDS011;646;48.696;9.114;2022-11-20T14:16:28;1.70;;;1.60;;
1306;SDS011;646;48.696;9.114;2022-11-20T14:18:56;2.08;;;1.40;;
1306;SDS011;646;48.696;9.114;2022-11-20T14:21:27;1.30;;;1.30;;
1306;SDS011;646;48.696;9.114;2022-11-20T14:24:09;1.83;;;1.30;;
1306;SDS011;646;48.696;9.114;2022-11-20T14:26:36;1.15;;;1.15;;
1306;SDS011;646;48.696;9.114;2022-11-20T14:29:10;1.42;;;1.33;;
1306;SDS011;646;48.696;9.114;2022-11-20T14:31:41;1.48;;;1.38;;
1306;SDS011;646;48.696;9.114;2022-11-20T14:34:18;3.15;;;1.10;;
1306;SDS011;646;48.696;9.114;2022-11-20T14:36:47;2.78;;;2.03;;
1306;SDS011;646;48.696;9.114;2022-11-20T14:39:21;2.57;;;2.37;;
1306;SDS011;646;48.696;9.114;2022-11-20T14:41:51;2.20;;;2.10;;
1306;SDS011;646;48.696;9.114;2022-11-20T14:44:19;1.42;;;1.42;;
1306;SDS011;646;48.696;9.114;2022-11-20T14:46:48;1.83;;;1.73;;
1306;SDS011;646;48.696;9.114;2022-11-20T14:49:16;1.98;;;1.88;;
1306;SDS011;646;48.696;9.114;2022-11-20T14:51:41;2.80;;;2.60;;
1306;SDS011;646;48.696;9.114;2022-11-20T14:54:08;4.37;;;2.30;;
1306;SDS011;646;48.696;9.114;2022-11-20T14:56:34;1.98;;;1.80;;
1306;SDS011;646;48.696;9.114;2022-11-20T14:58:59;2.47;;;2.33;;
1306;SDS011;646;48.696;9.114;2022-11-20T15:01:25;2.20;;;2.00;;
1306;SDS011;646;48.696;9.114;2022-11-20T15:04:01;2.10;;;2.00;;
1306;SDS011;646;48.696;9.114;2022-11-20T15:06:32;2.95;;;2.65;;
1306;SDS011;646;48.696;9.114;2022-11-20T15:08:58;1.70;;;1.60;;
1306;SDS011;646;48.696;9.114;2022-11-20T15:11:33;5.57;;;5.07;;
1306;SDS011;646;48.696;9.114;2022-11-20T15:14:08;8.07;;;6.95;;
1306;SDS011;646;48.696;9.114;2022-11-20T15:16:34;4.65;;;4.25;;
1306;SDS011;646;48.696;9.114;2022-11-20T15:19:00;4.60;;;3.80;;
1306;SDS011;646;48.696;9.114;2022-11-20T15:21:28;5.35;;;4.85;;
1306;SDS011;646;48.696;9.114;2022-11-20T15:23:54;5.30;;;4.90;;
1306;SDS011;646;48.696;9.114;2022-11-20T15:26:21;3.60;;;3.27;;
1306;SDS011;646;48.696;9.114;2022-11-20T15:28:51;4.88;;;4.47;;
1306;SDS011;646;48.696;9.114;2022-11-20T15:31:18;4.27;;;3.50;;
1306;SDS011;646;48.696;9.114;2022-11-20T15:33:45;4.10;;;3.80;;
1306;SDS011;646;48.696;9.114;2022-11-20T15:36:11;6.30;;;5.67;;
1306;SDS011;646;48.696;9.114;2022-11-20T15:38:37;4.63;;;4.25;;
1306;SDS011;646;48.696;9.114;2022-11-20T15:41:03;3.58;;;3.25;;
1306;SDS011;646;48.696;9.114;2022-11-20T15:43:29;3.00;;;2.70;;
1306;SDS011;646;48.696;9.114;2022-11-20T15:45:56;2.87;;;2.67;;
1306;SDS011;646;48.696;9.114;2022-11-20T15:48:26;2.67;;;2.47;;
1306;SDS011;646;48.696;9.114;2022-11-20T15:50:55;3.10;;;2.83;;
1306;SDS011;646;48.696;9.114;2022-11-20T15:53:24;2.40;;;2.20;;
1306;SDS011;646;48.696;9.114;2022-11-20T15:55:50;2.60;;;2.40;;
1306;SDS011;646;48.696;9.114;2022-11-20T15:58:15;2.80;;;2.50;;
1306;SDS011;646;48.696;9.114;2022-11-20T16:00:44;3.33;;;2.75;;
1306;SDS011;646;48.696;9.114;2022-11-20T16:03:13;3.57;;;3.27;;
1306;SDS011;646;48.696;9.114;2022-11-20T16:05:39;3.92;;;3.63;;
1306;SDS011;646;48.696;9.114;2022-11-20T16:08:05;7.70;;;3.23;;
1306;SDS011;646;48.696;9.114;2022-11-20T16:10:31;3.17;;;2.40;;
1306;SDS011;646;48.696;9.114;2022-11-20T16:12:56;2.70;;;2.50;;
1306;SDS011;646;48.696;9.114;2022-11-20T16:15:41;2.83;;;2.60;;
1306;SDS011;646;48.696;9.114;2022-11-20T16:18:16;2.60;;;2.40;;
1306;SDS011;646;48.696;9.114;2022-11-20T16:20:44;2.50;;;2.40;;
1306;SDS011;646;48.696;9.114;2022-11-20T16:23:11;3.00;;;2.70;;
1306;SDS011;646;48.696;9.114;2022-11-20T16:25:37;2.67;;;2.47;;
1306;SDS011;646;48.696;9.114;2022-11-20T16:28:03;5.43;;;4.83;;
1306;SDS011;646;48.696;9.114;2022-11-20T16:30:28;3.70;;;3.40;;
1306;SDS011;646;48.696;9.114;2022-11-20T16:32:55;4.30;;;4.00;;
1306;SDS011;646;48.696;9.114;2022-11-20T16:35:20;2.90;;;2.70;;
1306;SDS011;646;48.696;9.114;2022-11-20T16:37:46;2.80;;;2.60;;
1306;SDS011;646;48.696;9.114;2022-11-20T16:40:11;3.50;;;3.20;;
1306;SDS011;646;48.696;9.114;2022-11-20T16:42:37;4.80;;;3.33;;
1306;SDS011;646;48.696;9.114;2022-11-20T16:45:03;13.50;;;9.30;;
1306;SDS011;646;48.696;9.114;2022-11-20T16:47:33;5.55;;;4.95;;
1306;SDS011;646;48.696;9.114;2022-11-20T16:50:00;5.45;;;4.95;;
1306;SDS011;646;48.696;9.114;2022-11-20T16:52:29;5.13;;;4.60;;
1306;SDS011;646;48.696;9.114;2022-11-20T16:54:55;5.40;;;5.00;;
1306;SDS011;646;48.696;9.114;2022-11-20T16:57:21;4.18;;;3.80;;
1306;SDS011;646;48.696;9.114;2022-11-20T16:59:47;3.80;;;3.50;;
1306;SDS011;646;48.696;9.114;2022-11-20T17:02:12;3.70;;;3.40;;
1306;SDS011;646;48.696;9.114;2022-11-20T17:04:38;5.07;;;4.30;;
1306;SDS011;646;48.696;9.114;2022-11-20T17:07:04;3.37;;;3.07;;
1306;SDS011;646;48.696;9.114;2022-11-20T17:09:29;3.20;;;2.90;;
1306;SDS011;646;48.696;9.114;2022-11-20T17:11:55;2.93;;;2.73;;
1306;SDS011;646;48.696;9.114;2022-11-20T17:14:20;3.20;;;2.90;;
1306;SDS011;646;48.696;9.114;2022-11-20T17:16:46;2.70;;;2.50;;
1306;SDS011;646;48.696;9.114;2022-11-20T17:19:11;5.07;;;4.50;;
1306;SDS011;646;48.696;9.114;2022-11-20T17:21:38;6.50;;;5.60;;